sensor_id;sensor_type;location;lat;lon;timestamp;pressure;altitude;pressure_sealevel;temperature;humidity
75656;BME280;64252;51.094;13.714;2023-04-07T00:00:28;100731.00;;;0.69;74.46
75656;BME280;64252;51.094;13.714;2023-04-07T00:02:54;100723.31;;;0.66;75.50
75656;BME280;64252;51.094;13.714;2023-04-07T00:05:20;100722.50;;;0.65;75.19
75656;BME280;64252;51.094;13.714;2023-04-07T00:07:46;100728.47;;;0.59;75.78
75656;BME280;64252;51.094;13.714;2023-04-07T00:10:12;100725.41;;;0.60;75.94
75656;BME280;64252;51.094;13.714;2023-04-07T00:12:37;100726.44;;;0.51;76.25
75656;BME280;64252;51.094;13.714;2023-04-07T00:15:03;100724.63;;;0.46;75.84
75656;BME280;64252;51.094;13.714;2023-04-07T00:17:30;100727.50;;;0.41;76.30
75656;BME280;64252;51.094;13.714;2023-04-07T00:19:55;100730.28;;;0.41;76.51
75656;BME280;64252;51.094;13.714;2023-04-07T00:22:21;100730.41;;;0.36;76.57
75656;BME280;64252;51.094;13.714;2023-04-07T00:24:46;100728.25;;;0.33;76.99
75656;BME280;64252;51.094;13.714;2023-04-07T00:27:12;100731.28;;;0.23;77.24
75656;BME280;64252;51.094;13.714;2023-04-07T00:29:38;100728.91;;;0.16;77.21
75656;BME280;64252;51.094;13.714;2023-04-07T00:32:03;100722.03;;;0.14;77.78
75656;BME280;64252;51.094;13.714;2023-04-07T00:34:29;100725.75;;;0.09;77.95
75656;BME280;64252;51.094;13.714;2023-04-07T00:36:54;100723.47;;;-0.03;78.39
75656;BME280;64252;51.094;13.714;2023-04-07T00:39:20;100720.19;;;-0.05;78.16
75656;BME280;64252;51.094;13.714;2023-04-07T00:41:46;100729.66;;;-0.06;78.56
75656;BME280;64252;51.094;13.714;2023-04-07T00:44:12;100720.72;;;-0.03;78.80
75656;BME280;64252;51.094;13.714;2023-04-07T00:46:38;100718.16;;;-0.13;79.88
75656;BME280;64252;51.094;13.714;2023-04-07T00:49:05;100716.09;;;-0.21;79.72
75656;BME280;64252;51.094;13.714;2023-04-07T00:51:31;100709.94;;;-0.18;79.62
75656;BME280;64252;51.094;13.714;2023-04-07T00:53:57;100713.34;;;-0.21;79.62
75656;BME280;64252;51.094;13.714;2023-04-07T00:56:24;100707.78;;;-0.21;80.41
75656;BME280;64252;51.094;13.714;2023-04-07T00:58:50;100706.97;;;-0.35;80.77
75656;BME280;64252;51.094;13.714;2023-04-07T01:01:21;100701.72;;;-0.36;81.25
75656;BME280;64252;51.094;13.714;2023-04-07T01:04:11;100704.81;;;-0.38;80.18
75656;BME280;64252;51.094;13.714;2023-04-07T01:06:41;100702.97;;;-0.29;80.35
75656;BME280;64252;51.094;13.714;2023-04-07T01:09:24;100698.44;;;-0.38;80.08
75656;BME280;64252;51.094;13.714;2023-04-07T01:12:11;100700.06;;;-0.37;80.15
75656;BME280;64252;51.094;13.714;2023-04-07T01:14:46;100695.78;;;-0.43;80.13
75656;BME280;64252;51.094;13.714;2023-04-07T01:17:33;100695.78;;;-0.43;81.27
75656;BME280;64252;51.094;13.714;2023-04-07T01:20:01;100691.44;;;-0.50;80.91
75656;BME280;64252;51.094;13.714;2023-04-07T01:22:42;100681.47;;;-0.51;80.53
75656;BME280;64252;51.094;13.714;2023-04-07T01:30:39;100675.63;;;-0.49;80.99
75656;BME280;64252;51.094;13.714;2023-04-07T01:33:10;100674.63;;;-0.53;81.54
75656;BME280;64252;51.094;13.714;2023-04-07T01:35:38;100670.72;;;-0.52;81.27
75656;BME280;64252;51.094;13.714;2023-04-07T01:38:05;100676.84;;;-0.55;81.52
75656;BME280;64252;51.094;13.714;2023-04-07T01:40:32;100676.03;;;-0.56;82.66
75656;BME280;64252;51.094;13.714;2023-04-07T01:43:00;100671.59;;;-0.70;82.94
75656;BME280;64252;51.094;13.714;2023-04-07T01:45:27;100685.19;;;-0.69;82.73
75656;BME280;64252;51.094;13.714;2023-04-07T01:47:54;100675.75;;;-0.68;82.85
75656;BME280;64252;51.094;13.714;2023-04-07T01:50:20;100663.28;;;-0.70;82.36
75656;BME280;64252;51.094;13.714;2023-04-07T01:52:46;100677.06;;;-0.65;82.61
75656;BME280;64252;51.094;13.714;2023-04-07T01:55:12;100664.34;;;-0.66;82.18
75656;BME280;64252;51.094;13.714;2023-04-07T01:57:46;100664.75;;;-0.73;82.29
75656;BME280;64252;51.094;13.714;2023-04-07T02:00:16;100666.69;;;-0.73;82.20
75656;BME280;64252;51.094;13.714;2023-04-07T02:02:46;100672.53;;;-0.75;82.44
75656;BME280;64252;51.094;13.714;2023-04-07T02:05:18;100665.13;;;-0.79;82.87
75656;BME280;64252;51.094;13.714;2023-04-07T02:07:51;100684.22;;;-0.92;82.80
75656;BME280;64252;51.094;13.714;2023-04-07T02:10:21;100677.66;;;-0.96;83.25
75656;BME280;64252;51.094;13.714;2023-04-07T02:12:47;100669.03;;;-0.94;84.01
75656;BME280;64252;51.094;13.714;2023-04-07T02:15:18;100668.41;;;-1.05;83.56
75656;BME280;64252;51.094;13.714;2023-04-07T02:17:47;100657.31;;;-1.05;83.35
75656;BME280;64252;51.094;13.714;2023-04-07T02:20:15;100659.78;;;-1.03;83.53
75656;BME280;64252;51.094;13.714;2023-04-07T02:22:42;100665.53;;;-1.00;83.33
75656;BME280;64252;51.094;13.714;2023-04-07T02:25:24;100664.63;;;-0.95;83.53
75656;BME280;64252;51.094;13.714;2023-04-07T02:27:52;100657.84;;;-0.89;83.71
75656;BME280;64252;51.094;13.714;2023-04-07T02:30:19;100649.63;;;-0.94;83.49
75656;BME280;64252;51.094;13.714;2023-04-07T02:32:45;100657.13;;;-0.95;84.21
75656;BME280;64252;51.094;13.714;2023-04-07T02:35:13;100655.28;;;-0.99;83.82
75656;BME280;64252;51.094;13.714;2023-04-07T02:37:39;100651.88;;;-0.96;83.93
75656;BME280;64252;51.094;13.714;2023-04-07T02:40:06;100651.38;;;-0.98;84.11
75656;BME280;64252;51.094;13.714;2023-04-07T02:42:31;100645.53;;;-0.97;83.90
75656;BME280;64252;51.094;13.714;2023-04-07T02:44:57;100649.63;;;-0.94;83.61
75656;BME280;64252;51.094;13.714;2023-04-07T02:47:22;100648.72;;;-0.90;83.60
75656;BME280;64252;51.094;13.714;2023-04-07T02:49:49;100645.34;;;-0.86;83.68
75656;BME280;64252;51.094;13.714;2023-04-07T02:52:15;100639.25;;;-0.89;83.44
75656;BME280;64252;51.094;13.714;2023-04-07T02:54:40;100637.66;;;-0.90;83.38
75656;BME280;64252;51.094;13.714;2023-04-07T02:57:08;100641.84;;;-0.92;83.60
75656;BME280;64252;51.094;13.714;2023-04-07T02:59:33;100647.06;;;-0.91;84.15
75656;BME280;64252;51.094;13.714;2023-04-07T03:01:59;100634.34;;;-0.92;85.21
75656;BME280;64252;51.094;13.714;2023-04-07T03:04:25;100640.19;;;-0.93;83.88
75656;BME280;64252;51.094;13.714;2023-04-07T03:06:50;100642.56;;;-0.86;84.20
75656;BME280;64252;51.094;13.714;2023-04-07T03:09:16;100645.81;;;-0.84;84.15
75656;BME280;64252;51.094;13.714;2023-04-07T03:11:42;100644.81;;;-0.89;84.44
75656;BME280;64252;51.094;13.714;2023-04-07T03:14:08;100645.44;;;-0.92;83.62
75656;BME280;64252;51.094;13.714;2023-04-07T03:16:41;100637.41;;;-0.93;84.07
75656;BME280;64252;51.094;13.714;2023-04-07T03:19:10;100641.53;;;-0.91;83.68
75656;BME280;64252;51.094;13.714;2023-04-07T03:21:40;100639.69;;;-0.95;83.75
75656;BME280;64252;51.094;13.714;2023-04-07T03:24:07;100627.78;;;-0.96;84.56
75656;BME280;64252;51.094;13.714;2023-04-07T03:26:33;100629.72;;;-0.96;84.94
75656;BME280;64252;51.094;13.714;2023-04-07T03:29:00;100626.13;;;-0.97;84.71
75656;BME280;64252;51.094;13.714;2023-04-07T03:31:27;100633.31;;;-0.96;84.72
75656;BME280;64252;51.094;13.714;2023-04-07T03:33:55;100625.31;;;-0.97;84.88
75656;BME280;64252;51.094;13.714;2023-04-07T03:36:21;100631.66;;;-0.97;84.26
75656;BME280;64252;51.094;13.714;2023-04-07T03:38:46;100633.13;;;-0.99;85.10
75656;BME280;64252;51.094;13.714;2023-04-07T03:41:14;100618.72;;;-1.01;85.28
75656;BME280;64252;51.094;13.714;2023-04-07T03:43:40;100626.50;;;-1.03;85.22
75656;BME280;64252;51.094;13.714;2023-04-07T03:46:06;100619.13;;;-1.08;84.91
75656;BME280;64252;51.094;13.714;2023-04-07T03:48:32;100615.22;;;-1.07;84.99
75656;BME280;64252;51.094;13.714;2023-04-07T03:51:04;100615.84;;;-1.10;85.28
75656;BME280;64252;51.094;13.714;2023-04-07T03:53:31;100616.97;;;-1.11;85.21
75656;BME280;64252;51.094;13.714;2023-04-07T03:55:58;100620.38;;;-1.14;85.31
75656;BME280;64252;51.094;13.714;2023-04-07T03:58:47;100621.78;;;-1.16;86.15
75656;BME280;64252;51.094;13.714;2023-04-07T04:01:20;100615.41;;;-1.17;85.88
75656;BME280;64252;51.094;13.714;2023-04-07T04:03:48;100619.53;;;-1.14;85.62
75656;BME280;64252;51.094;13.714;2023-04-07T04:06:33;100625.47;;;-1.21;85.37
75656;BME280;64252;51.094;13.714;2023-04-07T04:09:24;100632.88;;;-1.16;85.30
75656;BME280;64252;51.094;13.714;2023-04-07T04:11:50;100617.16;;;-1.21;85.17
75656;BME280;64252;51.094;13.714;2023-04-07T04:14:17;100629.59;;;-1.18;86.10
75656;BME280;64252;51.094;13.714;2023-04-07T04:16:49;100634.81;;;-1.17;85.63
75656;BME280;64252;51.094;13.714;2023-04-07T04:19:28;100627.13;;;-1.20;85.57
75656;BME280;64252;51.094;13.714;2023-04-07T04:21:57;100623.00;;;-1.22;85.32
75656;BME280;64252;51.094;13.714;2023-04-07T04:24:26;100630.06;;;-1.30;85.78
75656;BME280;64252;51.094;13.714;2023-04-07T04:26:56;100633.47;;;-1.33;85.69
75656;BME280;64252;51.094;13.714;2023-04-07T04:29:22;100637.34;;;-1.34;86.91
75656;BME280;64252;51.094;13.714;2023-04-07T04:31:48;100635.19;;;-1.37;86.72
75656;BME280;64252;51.094;13.714;2023-04-07T04:34:14;100639.59;;;-1.36;86.78
75656;BME280;64252;51.094;13.714;2023-04-07T04:36:41;100636.91;;;-1.41;86.61
75656;BME280;64252;51.094;13.714;2023-04-07T04:39:07;100643.06;;;-1.44;87.00
75656;BME280;64252;51.094;13.714;2023-04-07T04:41:34;100641.66;;;-1.42;86.73
75656;BME280;64252;51.094;13.714;2023-04-07T04:44:00;100640.81;;;-1.42;86.46
75656;BME280;64252;51.094;13.714;2023-04-07T04:46:26;100631.38;;;-1.41;87.00
75656;BME280;64252;51.094;13.714;2023-04-07T04:48:53;100635.28;;;-1.42;86.81
75656;BME280;64252;51.094;13.714;2023-04-07T04:51:20;100636.41;;;-1.43;86.57
75656;BME280;64252;51.094;13.714;2023-04-07T04:53:50;100644.41;;;-1.42;86.56
75656;BME280;64252;51.094;13.714;2023-04-07T04:56:17;100629.94;;;-1.39;86.17
75656;BME280;64252;51.094;13.714;2023-04-07T04:58:45;100644.91;;;-1.40;86.35
75656;BME280;64252;51.094;13.714;2023-04-07T05:01:17;100639.59;;;-1.36;85.82
75656;BME280;64252;51.094;13.714;2023-04-07T05:03:50;100633.47;;;-1.33;85.89
75656;BME280;64252;51.094;13.714;2023-04-07T05:06:21;100640.84;;;-1.28;85.76
75656;BME280;64252;51.094;13.714;2023-04-07T05:08:51;100638.00;;;-1.23;85.36
75656;BME280;64252;51.094;13.714;2023-04-07T05:11:20;100636.75;;;-1.17;85.55
75656;BME280;64252;51.094;13.714;2023-04-07T05:13:50;100644.97;;;-1.12;85.51
75656;BME280;64252;51.094;13.714;2023-04-07T05:16:16;100631.34;;;-1.09;85.18
75656;BME280;64252;51.094;13.714;2023-04-07T05:18:42;100634.84;;;-1.03;85.22
75656;BME280;64252;51.094;13.714;2023-04-07T05:21:07;100632.28;;;-1.00;84.78
75656;BME280;64252;51.094;13.714;2023-04-07T05:23:35;100632.09;;;-0.90;84.81
75656;BME280;64252;51.094;13.714;2023-04-07T05:26:02;100634.25;;;-0.86;84.54
75656;BME280;64252;51.094;13.714;2023-04-07T05:28:28;100634.66;;;-0.79;84.58
75656;BME280;64252;51.094;13.714;2023-04-07T05:30:58;100630.34;;;-0.72;83.88
75656;BME280;64252;51.094;13.714;2023-04-07T05:33:28;100632.09;;;-0.62;83.31
75656;BME280;64252;51.094;13.714;2023-04-07T05:35:55;100629.22;;;-0.57;82.87
75656;BME280;64252;51.094;13.714;2023-04-07T05:38:20;100634.53;;;-0.47;82.79
75656;BME280;64252;51.094;13.714;2023-04-07T05:40:47;100636.06;;;-0.41;81.95
75656;BME280;64252;51.094;13.714;2023-04-07T05:43:19;100624.03;;;-0.36;81.79
75656;BME280;64252;51.094;13.714;2023-04-07T05:45:45;100623.44;;;-0.33;81.90
75656;BME280;64252;51.094;13.714;2023-04-07T05:48:10;100629.78;;;-0.33;81.59
75656;BME280;64252;51.094;13.714;2023-04-07T05:50:42;100625.66;;;-0.22;81.29
75656;BME280;64252;51.094;13.714;2023-04-07T05:53:11;100625.44;;;-0.12;81.02
75656;BME280;64252;51.094;13.714;2023-04-07T05:55:36;100632.91;;;0.02;80.19
75656;BME280;64252;51.094;13.714;2023-04-07T05:58:05;100618.66;;;0.17;80.61
75656;BME280;64252;51.094;13.714;2023-04-07T06:00:31;100620.56;;;0.30;79.73
75656;BME280;64252;51.094;13.714;2023-04-07T06:03:06;100630.41;;;0.36;79.34
75656;BME280;64252;51.094;13.714;2023-04-07T06:05:45;100623.47;;;0.47;78.76
75656;BME280;64252;51.094;13.714;2023-04-07T06:08:11;100627.88;;;0.48;78.10
75656;BME280;64252;51.094;13.714;2023-04-07T06:10:37;100616.63;;;0.53;77.92
75656;BME280;64252;51.094;13.714;2023-04-07T06:13:04;100618.16;;;0.59;76.95
75656;BME280;64252;51.094;13.714;2023-04-07T06:15:30;100622.47;;;0.65;76.81
75656;BME280;64252;51.094;13.714;2023-04-07T06:17:57;100624.34;;;0.78;76.91
75656;BME280;64252;51.094;13.714;2023-04-07T06:20:23;100625.16;;;0.79;76.61
75656;BME280;64252;51.094;13.714;2023-04-07T06:22:50;100626.97;;;0.83;76.66
75656;BME280;64252;51.094;13.714;2023-04-07T06:25:16;100621.69;;;0.73;77.02
75656;BME280;64252;51.094;13.714;2023-04-07T06:27:41;100626.59;;;0.76;76.74
75656;BME280;64252;51.094;13.714;2023-04-07T06:30:07;100624.81;;;0.80;76.73
75656;BME280;64252;51.094;13.714;2023-04-07T06:32:34;100625.94;;;1.02;75.96
75656;BME280;64252;51.094;13.714;2023-04-07T06:35:00;100614.41;;;1.25;75.31
75656;BME280;64252;51.094;13.714;2023-04-07T06:37:26;100616.28;;;1.47;74.03
75656;BME280;64252;51.094;13.714;2023-04-07T06:39:53;100604.41;;;1.81;75.27
75656;BME280;64252;51.094;13.714;2023-04-07T06:42:18;100614.09;;;2.01;72.95
75656;BME280;64252;51.094;13.714;2023-04-07T06:44:56;100613.78;;;2.11;72.17
75656;BME280;64252;51.094;13.714;2023-04-07T06:47:21;100609.50;;;2.22;71.71
75656;BME280;64252;51.094;13.714;2023-04-07T06:49:47;100612.78;;;2.24;72.46
75656;BME280;64252;51.094;13.714;2023-04-07T06:52:12;100620.00;;;2.25;71.17
75656;BME280;64252;51.094;13.714;2023-04-07T06:54:38;100625.25;;;2.35;71.17
75656;BME280;64252;51.094;13.714;2023-04-07T06:57:04;100612.47;;;2.34;70.43
75656;BME280;64252;51.094;13.714;2023-04-07T06:59:31;100615.09;;;2.39;71.17
75656;BME280;64252;51.094;13.714;2023-04-07T07:01:56;100612.91;;;2.71;71.22
75656;BME280;64252;51.094;13.714;2023-04-07T07:04:22;100610.22;;;2.83;69.95
75656;BME280;64252;51.094;13.714;2023-04-07T07:06:47;100612.31;;;3.03;68.89
75656;BME280;64252;51.094;13.714;2023-04-07T07:09:13;100606.75;;;3.03;67.88
75656;BME280;64252;51.094;13.714;2023-04-07T07:11:39;100603.56;;;3.22;68.41
75656;BME280;64252;51.094;13.714;2023-04-07T07:14:04;100595.72;;;3.44;67.10
75656;BME280;64252;51.094;13.714;2023-04-07T07:16:30;100608.16;;;3.56;66.13
75656;BME280;64252;51.094;13.714;2023-04-07T07:18:55;100602.38;;;3.61;65.98
75656;BME280;64252;51.094;13.714;2023-04-07T07:21:21;100599.06;;;3.88;66.57
75656;BME280;64252;51.094;13.714;2023-04-07T07:23:46;100595.47;;;4.08;64.51
75656;BME280;64252;51.094;13.714;2023-04-07T07:26:12;100601.00;;;4.17;63.17
75656;BME280;64252;51.094;13.714;2023-04-07T07:28:38;100598.75;;;4.64;63.05
75656;BME280;64252;51.094;13.714;2023-04-07T07:31:10;100599.13;;;5.19;63.14
75656;BME280;64252;51.094;13.714;2023-04-07T07:33:38;100611.06;;;5.41;62.93
75656;BME280;64252;51.094;13.714;2023-04-07T07:36:06;100606.84;;;5.59;58.97
75656;BME280;64252;51.094;13.714;2023-04-07T07:38:31;100614.09;;;5.96;57.92
75656;BME280;64252;51.094;13.714;2023-04-07T07:40:57;100615.13;;;6.04;57.55
75656;BME280;64252;51.094;13.714;2023-04-07T07:43:24;100613.84;;;6.01;57.66
75656;BME280;64252;51.094;13.714;2023-04-07T07:45:51;100615.31;;;6.35;57.66
75656;BME280;64252;51.094;13.714;2023-04-07T07:48:16;100609.72;;;6.79;58.66
75656;BME280;64252;51.094;13.714;2023-04-07T07:50:42;100613.69;;;6.50;57.07
75656;BME280;64252;51.094;13.714;2023-04-07T07:53:09;100617.41;;;6.66;55.21
75656;BME280;64252;51.094;13.714;2023-04-07T07:55:35;100624.22;;;6.81;55.35
75656;BME280;64252;51.094;13.714;2023-04-07T07:58:00;100618.06;;;7.19;55.09
75656;BME280;64252;51.094;13.714;2023-04-07T08:00:26;100617.06;;;6.83;55.75
75656;BME280;64252;51.094;13.714;2023-04-07T08:02:54;100622.56;;;7.07;57.20
75656;BME280;64252;51.094;13.714;2023-04-07T08:05:20;100625.13;;;7.28;56.69
75656;BME280;64252;51.094;13.714;2023-04-07T08:07:46;100619.31;;;7.37;55.47
75656;BME280;64252;51.094;13.714;2023-04-07T08:10:13;100617.50;;;7.60;53.94
75656;BME280;64252;51.094;13.714;2023-04-07T08:12:39;100622.38;;;7.94;53.53
75656;BME280;64252;51.094;13.714;2023-04-07T08:15:09;100619.44;;;8.07;52.96
75656;BME280;64252;51.094;13.714;2023-04-07T08:17:35;100619.69;;;8.17;51.08
75656;BME280;64252;51.094;13.714;2023-04-07T08:20:02;100617.41;;;8.23;51.44
75656;BME280;64252;51.094;13.714;2023-04-07T08:22:28;100618.47;;;8.34;51.02
75656;BME280;64252;51.094;13.714;2023-04-07T08:24:54;100621.88;;;8.43;50.01
75656;BME280;64252;51.094;13.714;2023-04-07T08:27:20;100615.22;;;8.90;50.68
75656;BME280;64252;51.094;13.714;2023-04-07T08:29:58;100620.13;;;8.73;51.32
75656;BME280;64252;51.094;13.714;2023-04-07T08:32:23;100618.31;;;9.04;48.98
75656;BME280;64252;51.094;13.714;2023-04-07T08:34:49;100624.09;;;9.56;48.28
75656;BME280;64252;51.094;13.714;2023-04-07T08:37:15;100620.59;;;9.89;48.05
75656;BME280;64252;51.094;13.714;2023-04-07T08:39:40;100619.34;;;10.13;46.88
75656;BME280;64252;51.094;13.714;2023-04-07T08:42:07;100619.88;;;10.45;46.08
75656;BME280;64252;51.094;13.714;2023-04-07T08:44:35;100613.16;;;10.04;43.38
75656;BME280;64252;51.094;13.714;2023-04-07T08:47:03;100599.59;;;10.13;43.83
75656;BME280;64252;51.094;13.714;2023-04-07T08:49:32;100603.63;;;9.59;43.90
75656;BME280;64252;51.094;13.714;2023-04-07T08:52:05;100602.34;;;10.06;44.48
75656;BME280;64252;51.094;13.714;2023-04-07T08:54:35;100601.44;;;10.54;43.52
75656;BME280;64252;51.094;13.714;2023-04-07T08:57:02;100605.13;;;10.92;41.96
75656;BME280;64252;51.094;13.714;2023-04-07T08:59:28;100613.41;;;10.44;39.89
75656;BME280;64252;51.094;13.714;2023-04-07T09:01:55;100607.41;;;10.49;40.91
75656;BME280;64252;51.094;13.714;2023-04-07T09:04:21;100604.69;;;10.56;40.08
75656;BME280;64252;51.094;13.714;2023-04-07T09:06:50;100604.75;;;10.30;38.94
75656;BME280;64252;51.094;13.714;2023-04-07T09:09:16;100612.38;;;10.30;39.59
75656;BME280;64252;51.094;13.714;2023-04-07T09:11:42;100605.59;;;10.34;40.47
75656;BME280;64252;51.094;13.714;2023-04-07T09:14:07;100600.22;;;10.89;41.69
75656;BME280;64252;51.094;13.714;2023-04-07T09:16:33;100604.81;;;10.67;38.32
75656;BME280;64252;51.094;13.714;2023-04-07T09:18:59;100606.13;;;11.10;37.85
75656;BME280;64252;51.094;13.714;2023-04-07T09:21:25;100598.25;;;11.30;38.38
75656;BME280;64252;51.094;13.714;2023-04-07T09:23:51;100599.00;;;11.23;39.10
75656;BME280;64252;51.094;13.714;2023-04-07T09:28:44;100600.06;;;11.49;36.33
75656;BME280;64252;51.094;13.714;2023-04-07T09:31:11;100596.69;;;11.36;37.10
75656;BME280;64252;51.094;13.714;2023-04-07T09:33:37;100594.91;;;11.21;38.21
75656;BME280;64252;51.094;13.714;2023-04-07T09:36:04;100588.47;;;11.20;39.12
75656;BME280;64252;51.094;13.714;2023-04-07T09:38:34;100587.69;;;11.23;39.51
75656;BME280;64252;51.094;13.714;2023-04-07T09:41:09;100589.63;;;11.16;39.78
75656;BME280;64252;51.094;13.714;2023-04-07T09:43:36;100588.00;;;11.15;39.03
75656;BME280;64252;51.094;13.714;2023-04-07T09:46:07;100590.88;;;11.22;38.61
75656;BME280;64252;51.094;13.714;2023-04-07T09:48:33;100588.31;;;11.06;37.91
75656;BME280;64252;51.094;13.714;2023-04-07T09:51:07;100586.41;;;11.17;38.18
75656;BME280;64252;51.094;13.714;2023-04-07T09:53:53;100585.13;;;11.11;38.13
75656;BME280;64252;51.094;13.714;2023-04-07T09:56:19;100576.78;;;11.25;38.41
75656;BME280;64252;51.094;13.714;2023-04-07T09:58:49;100577.16;;;10.83;37.40
75656;BME280;64252;51.094;13.714;2023-04-07T10:01:20;100586.22;;;10.99;37.22
75656;BME280;64252;51.094;13.714;2023-04-07T10:03:47;100587.56;;;11.13;37.39
75656;BME280;64252;51.094;13.714;2023-04-07T10:06:13;100581.84;;;10.69;38.57
75656;BME280;64252;51.094;13.714;2023-04-07T10:08:40;100588.41;;;10.80;38.68
75656;BME280;64252;51.094;13.714;2023-04-07T10:11:07;100580.09;;;10.94;38.39
75656;BME280;64252;51.094;13.714;2023-04-07T10:13:35;100580.69;;;10.73;39.02
75656;BME280;64252;51.094;13.714;2023-04-07T10:16:05;100575.03;;;11.10;37.96
75656;BME280;64252;51.094;13.714;2023-04-07T10:18:33;100581.28;;;11.30;37.84
75656;BME280;64252;51.094;13.714;2023-04-07T10:21:03;100584.63;;;11.42;37.79
75656;BME280;64252;51.094;13.714;2023-04-07T10:26:18;100583.38;;;11.80;38.17
75656;BME280;64252;51.094;13.714;2023-04-07T10:28:48;100582.34;;;11.59;38.62
75656;BME280;64252;51.094;13.714;2023-04-07T10:31:16;100583.00;;;11.41;38.44
75656;BME280;64252;51.094;13.714;2023-04-07T10:33:49;100586.69;;;11.49;36.92
75656;BME280;64252;51.094;13.714;2023-04-07T10:36:16;100584.31;;;11.55;35.96
75656;BME280;64252;51.094;13.714;2023-04-07T10:41:36;100584.59;;;11.39;37.38
75656;BME280;64252;51.094;13.714;2023-04-07T10:44:03;100580.25;;;11.08;37.34
75656;BME280;64252;51.094;13.714;2023-04-07T10:49:11;100589.31;;;11.24;37.62
75656;BME280;64252;51.094;13.714;2023-04-07T10:51:38;100583.50;;;11.10;38.14
75656;BME280;64252;51.094;13.714;2023-04-07T10:54:17;100582.19;;;11.41;38.38
75656;BME280;64252;51.094;13.714;2023-04-07T10:57:07;100587.22;;;11.62;38.25
75656;BME280;64252;51.094;13.714;2023-04-07T10:59:37;100577.28;;;11.78;39.34
75656;BME280;64252;51.094;13.714;2023-04-07T11:04:42;100572.72;;;12.21;37.71
75656;BME280;64252;51.094;13.714;2023-04-07T11:07:08;100572.88;;;11.84;36.42
75656;BME280;64252;51.094;13.714;2023-04-07T11:09:34;100576.19;;;11.97;36.69
75656;BME280;64252;51.094;13.714;2023-04-07T11:12:00;100580.19;;;11.89;37.37
75656;BME280;64252;51.094;13.714;2023-04-07T11:14:30;100573.28;;;11.86;36.56
75656;BME280;64252;51.094;13.714;2023-04-07T11:16:56;100572.91;;;11.88;36.51
75656;BME280;64252;51.094;13.714;2023-04-07T11:19:22;100572.06;;;11.84;36.54
75656;BME280;64252;51.094;13.714;2023-04-07T11:21:48;100574.38;;;11.71;37.33
75656;BME280;64252;51.094;13.714;2023-04-07T11:24:33;100571.94;;;11.70;37.86
75656;BME280;64252;51.094;13.714;2023-04-07T11:26:59;100569.41;;;11.58;38.15
75656;BME280;64252;51.094;13.714;2023-04-07T11:29:29;100569.47;;;11.65;37.77
75656;BME280;64252;51.094;13.714;2023-04-07T11:31:57;100567.66;;;11.90;37.54
75656;BME280;64252;51.094;13.714;2023-04-07T11:34:29;100576.81;;;11.73;36.96
75656;BME280;64252;51.094;13.714;2023-04-07T11:36:55;100581.38;;;11.40;37.34
75656;BME280;64252;51.094;13.714;2023-04-07T11:39:25;100574.47;;;11.34;37.14
75656;BME280;64252;51.094;13.714;2023-04-07T11:41:56;100580.19;;;11.41;38.27
75656;BME280;64252;51.094;13.714;2023-04-07T11:44:21;100566.25;;;11.22;38.66
75656;BME280;64252;51.094;13.714;2023-04-07T11:46:55;100566.94;;;11.53;37.32
75656;BME280;64252;51.094;13.714;2023-04-07T11:49:22;100568.91;;;11.96;37.88
75656;BME280;64252;51.094;13.714;2023-04-07T11:52:00;100562.31;;;11.78;37.66
75656;BME280;64252;51.094;13.714;2023-04-07T11:54:37;100567.34;;;12.06;36.70
75656;BME280;64252;51.094;13.714;2023-04-07T11:57:02;100567.22;;;11.81;37.08
75656;BME280;64252;51.094;13.714;2023-04-07T11:59:28;100564.47;;;11.95;36.94
75656;BME280;64252;51.094;13.714;2023-04-07T12:01:54;100562.41;;;11.92;36.61
75656;BME280;64252;51.094;13.714;2023-04-07T12:04:23;100561.47;;;11.74;37.46
75656;BME280;64252;51.094;13.714;2023-04-07T12:06:49;100571.03;;;11.59;38.15
75656;BME280;64252;51.094;13.714;2023-04-07T12:09:25;100563.66;;;11.47;37.66
75656;BME280;64252;51.094;13.714;2023-04-07T12:11:52;100556.22;;;11.28;37.81
75656;BME280;64252;51.094;13.714;2023-04-07T12:14:18;100565.19;;;11.37;37.34
75656;BME280;64252;51.094;13.714;2023-04-07T12:16:44;100548.88;;;11.68;39.49
75656;BME280;64252;51.094;13.714;2023-04-07T12:19:09;100558.88;;;11.55;40.54
75656;BME280;64252;51.094;13.714;2023-04-07T12:21:36;100554.69;;;11.38;39.70
75656;BME280;64252;51.094;13.714;2023-04-07T12:24:02;100561.22;;;11.45;39.74
75656;BME280;64252;51.094;13.714;2023-04-07T12:26:28;100562.66;;;11.25;40.04
75656;BME280;64252;51.094;13.714;2023-04-07T12:28:54;100557.09;;;11.36;40.61
75656;BME280;64252;51.094;13.714;2023-04-07T12:31:23;100550.47;;;11.65;40.37
75656;BME280;64252;51.094;13.714;2023-04-07T12:33:49;100552.38;;;11.51;40.74
75656;BME280;64252;51.094;13.714;2023-04-07T12:36:15;100558.94;;;11.62;41.08
75656;BME280;64252;51.094;13.714;2023-04-07T12:38:41;100547.16;;;12.07;40.74
75656;BME280;64252;51.094;13.714;2023-04-07T12:41:06;100549.50;;;11.95;39.96
75656;BME280;64252;51.094;13.714;2023-04-07T12:43:33;100544.59;;;11.88;40.16
75656;BME280;64252;51.094;13.714;2023-04-07T12:45:59;100548.63;;;11.87;41.39
75656;BME280;64252;51.094;13.714;2023-04-07T12:48:24;100544.00;;;12.23;39.77
75656;BME280;64252;51.094;13.714;2023-04-07T12:50:51;100548.56;;;12.49;40.10
75656;BME280;64252;51.094;13.714;2023-04-07T12:53:18;100543.38;;;12.65;39.75
75656;BME280;64252;51.094;13.714;2023-04-07T12:55:44;100547.13;;;12.00;39.61
75656;BME280;64252;51.094;13.714;2023-04-07T12:58:09;100536.75;;;12.29;39.18
75656;BME280;64252;51.094;13.714;2023-04-07T13:00:35;100551.94;;;11.96;39.69
75656;BME280;64252;51.094;13.714;2023-04-07T13:03:01;100550.59;;;11.76;40.48
75656;BME280;64252;51.094;13.714;2023-04-07T13:05:28;100552.78;;;12.00;38.88